sensor_id;sensor_type;location;lat;lon;timestamp;pressure;altitude;pressure_sealevel;temperature;humidity
70833;BME280;58452;59.418;17.962;2022-12-08T00:01:19;100082.13;;;-6.53;76.54
70833;BME280;58452;59.418;17.962;2022-12-08T00:03:45;100092.09;;;-6.52;75.98
70833;BME280;58452;59.418;17.962;2022-12-08T00:06:22;100083.19;;;-6.60;76.68
70833;BME280;58452;59.418;17.962;2022-12-08T00:09:15;100087.94;;;-6.77;77.44
70833;BME280;58452;59.418;17.962;2022-12-08T00:14:23;100092.09;;;-6.76;77.72
70833;BME280;58452;59.418;17.962;2022-12-08T00:16:49;100083.28;;;-6.89;78.24
70833;BME280;58452;59.418;17.962;2022-12-08T00:19:15;100087.78;;;-6.73;77.83
70833;BME280;58452;59.418;17.962;2022-12-08T00:21:40;100080.94;;;-6.68;77.42
70833;BME280;58452;59.418;17.962;2022-12-08T00:24:06;100092.19;;;-6.79;78.26
70833;BME280;58452;59.418;17.962;2022-12-08T00:26:31;100092.09;;;-6.76;77.61
70833;BME280;58452;59.418;17.962;2022-12-08T00:28:57;100092.19;;;-6.79;78.10
70833;BME280;58452;59.418;17.962;2022-12-08T00:31:22;100098.44;;;-6.66;77.87
70833;BME280;58452;59.418;17.962;2022-12-08T00:33:47;100097.63;;;-6.67;78.06
70833;BME280;58452;59.418;17.962;2022-12-08T00:36:13;100102.75;;;-6.45;77.90
70833;BME280;58452;59.418;17.962;2022-12-08T00:38:40;100095.38;;;-6.25;76.98
70833;BME280;58452;59.418;17.962;2022-12-08T00:41:16;100097.31;;;-6.08;76.37
70833;BME280;58452;59.418;17.962;2022-12-08T00:43:42;100094.41;;;-5.98;75.95
70833;BME280;58452;59.418;17.962;2022-12-08T00:46:07;100082.53;;;-5.93;75.27
70833;BME280;58452;59.418;17.962;2022-12-08T00:48:33;100086.31;;;-5.82;75.09
70833;BME280;58452;59.418;17.962;2022-12-08T00:50:58;100076.91;;;-5.77;74.90
70833;BME280;58452;59.418;17.962;2022-12-08T00:53:24;100087.31;;;-5.65;74.18
70833;BME280;58452;59.418;17.962;2022-12-08T00:55:49;100087.31;;;-5.65;73.85
70833;BME280;58452;59.418;17.962;2022-12-08T00:58:14;100080.72;;;-5.67;73.37
70833;BME280;58452;59.418;17.962;2022-12-08T01:00:41;100087.84;;;-5.78;73.39
70833;BME280;58452;59.418;17.962;2022-12-08T01:03:10;100077.28;;;-5.86;73.68
70833;BME280;58452;59.418;17.962;2022-12-08T01:05:36;100085.13;;;-5.72;73.59
70833;BME280;58452;59.418;17.962;2022-12-08T01:08:07;100090.63;;;-5.63;73.45
70833;BME280;58452;59.418;17.962;2022-12-08T01:10:37;100081.97;;;-5.56;72.33
70833;BME280;58452;59.418;17.962;2022-12-08T01:13:03;100078.66;;;-5.56;72.84
70833;BME280;58452;59.418;17.962;2022-12-08T01:15:29;100081.03;;;-5.53;72.84
70833;BME280;58452;59.418;17.962;2022-12-08T01:17:54;100078.47;;;-5.52;72.29
70833;BME280;58452;59.418;17.962;2022-12-08T01:20:20;100066.91;;;-5.56;71.66
70833;BME280;58452;59.418;17.962;2022-12-08T01:22:45;100063.91;;;-5.65;71.82
70833;BME280;58452;59.418;17.962;2022-12-08T01:25:10;100066.75;;;-5.74;71.65
70833;BME280;58452;59.418;17.962;2022-12-08T01:27:36;100067.91;;;-6.29;73.14
70833;BME280;58452;59.418;17.962;2022-12-08T01:30:02;100066.06;;;-6.49;74.55
70833;BME280;58452;59.418;17.962;2022-12-08T01:32:28;100061.78;;;-6.70;74.84
70833;BME280;58452;59.418;17.962;2022-12-08T01:34:53;100064.28;;;-6.97;76.34
70833;BME280;58452;59.418;17.962;2022-12-08T01:37:19;100055.25;;;-7.27;77.55
70833;BME280;58452;59.418;17.962;2022-12-08T01:39:44;100056.19;;;-7.31;77.77
70833;BME280;58452;59.418;17.962;2022-12-08T01:42:18;100053.38;;;-6.94;77.39
70833;BME280;58452;59.418;17.962;2022-12-08T01:47:09;100057.28;;;-6.61;75.22
70833;BME280;58452;59.418;17.962;2022-12-08T01:49:35;100054.06;;;-6.64;75.27
70833;BME280;58452;59.418;17.962;2022-12-08T01:52:09;100055.84;;;-6.43;74.66
70833;BME280;58452;59.418;17.962;2022-12-08T01:54:48;100054.81;;;-6.37;74.16
70833;BME280;58452;59.418;17.962;2022-12-08T01:57:21;100048.78;;;-6.57;74.03
70833;BME280;58452;59.418;17.962;2022-12-08T02:00:02;100049.09;;;-6.66;74.75
70833;BME280;58452;59.418;17.962;2022-12-08T02:02:33;100052.66;;;-6.73;74.72
70833;BME280;58452;59.418;17.962;2022-12-08T02:05:00;100049.13;;;-6.67;75.04
70833;BME280;58452;59.418;17.962;2022-12-08T02:07:26;100048.56;;;-6.51;74.55
70833;BME280;58452;59.418;17.962;2022-12-08T02:09:52;100050.72;;;-6.40;74.23
70833;BME280;58452;59.418;17.962;2022-12-08T02:12:18;100049.84;;;-6.39;73.42
70833;BME280;58452;59.418;17.962;2022-12-08T02:14:44;100052.00;;;-6.53;74.36
70833;BME280;58452;59.418;17.962;2022-12-08T02:30:42;100046.88;;;-6.02;72.17
70833;BME280;58452;59.418;17.962;2022-12-08T02:39:19;100046.16;;;-6.06;71.62
70833;BME280;58452;59.418;17.962;2022-12-08T02:41:55;100041.03;;;-6.03;71.84
70833;BME280;58452;59.418;17.962;2022-12-08T02:44:29;100031.75;;;-6.24;71.88
70833;BME280;58452;59.418;17.962;2022-12-08T02:47:04;100040.16;;;-6.25;72.48
70833;BME280;58452;59.418;17.962;2022-12-08T02:49:32;100045.13;;;-6.48;73.07
70833;BME280;58452;59.418;17.962;2022-12-08T02:54:59;100046.59;;;-6.18;72.11
70833;BME280;58452;59.418;17.962;2022-12-08T03:00:32;100033.19;;;-6.17;72.00
70833;BME280;58452;59.418;17.962;2022-12-08T03:11:16;100048.31;;;-6.20;71.72
70833;BME280;58452;59.418;17.962;2022-12-08T03:13:57;100049.78;;;-6.13;71.29
70833;BME280;58452;59.418;17.962;2022-12-08T03:16:26;100050.78;;;-6.18;71.40
70833;BME280;58452;59.418;17.962;2022-12-08T03:18:58;100053.25;;;-6.17;71.49
70833;BME280;58452;59.418;17.962;2022-12-08T03:21:25;100055.78;;;-6.66;71.53
70833;BME280;58452;59.418;17.962;2022-12-08T03:23:53;100057.09;;;-6.56;72.17
70833;BME280;58452;59.418;17.962;2022-12-08T03:26:30;100062.81;;;-6.51;72.26
70833;BME280;58452;59.418;17.962;2022-12-08T03:28:58;100042.31;;;-6.39;71.45
70833;BME280;58452;59.418;17.962;2022-12-08T03:31:25;100058.59;;;-6.26;71.16
70833;BME280;58452;59.418;17.962;2022-12-08T03:33:54;100047.69;;;-6.25;71.06
70833;BME280;58452;59.418;17.962;2022-12-08T03:36:21;100046.09;;;-6.27;71.07
70833;BME280;58452;59.418;17.962;2022-12-08T03:38:49;100045.28;;;-6.28;70.47
70833;BME280;58452;59.418;17.962;2022-12-08T03:41:17;100049.41;;;-6.27;70.88
70833;BME280;58452;59.418;17.962;2022-12-08T03:43:54;100050.59;;;-6.37;71.03
70833;BME280;58452;59.418;17.962;2022-12-08T03:46:21;100046.31;;;-6.58;71.84
70833;BME280;58452;59.418;17.962;2022-12-08T03:48:47;100050.03;;;-6.45;72.10
70833;BME280;58452;59.418;17.962;2022-12-08T03:51:13;100053.13;;;-6.37;71.60
70833;BME280;58452;59.418;17.962;2022-12-08T03:53:38;100053.13;;;-6.37;71.19
70833;BME280;58452;59.418;17.962;2022-12-08T03:56:05;100052.47;;;-6.42;71.62
70833;BME280;58452;59.418;17.962;2022-12-08T03:58:38;100053.88;;;-6.60;72.20
70833;BME280;58452;59.418;17.962;2022-12-08T04:01:03;100050.78;;;-6.93;73.08
70833;BME280;58452;59.418;17.962;2022-12-08T04:03:29;100048.09;;;-6.86;73.38
70833;BME280;58452;59.418;17.962;2022-12-08T04:05:54;100050.19;;;-6.74;72.73
70833;BME280;58452;59.418;17.962;2022-12-08T04:08:20;100052.81;;;-7.30;74.30
70833;BME280;58452;59.418;17.962;2022-12-08T04:10:45;100051.19;;;-7.05;74.11
70833;BME280;58452;59.418;17.962;2022-12-08T04:13:10;100049.94;;;-6.92;73.70
70833;BME280;58452;59.418;17.962;2022-12-08T04:15:36;100042.28;;;-7.13;74.31
70833;BME280;58452;59.418;17.962;2022-12-08T04:18:01;100039.38;;;-7.01;73.37
70833;BME280;58452;59.418;17.962;2022-12-08T04:20:26;100050.28;;;-7.30;74.06
70833;BME280;58452;59.418;17.962;2022-12-08T04:22:52;100048.84;;;-7.93;75.64
70833;BME280;58452;59.418;17.962;2022-12-08T04:25:17;100047.59;;;-7.78;75.86
70833;BME280;58452;59.418;17.962;2022-12-08T04:27:42;100044.91;;;-7.72;76.04
70833;BME280;58452;59.418;17.962;2022-12-08T04:30:08;100040.81;;;-7.74;75.98
70833;BME280;58452;59.418;17.962;2022-12-08T04:32:34;100036.16;;;-7.59;75.56
70833;BME280;58452;59.418;17.962;2022-12-08T04:34:59;100033.66;;;-7.31;75.07
70833;BME280;58452;59.418;17.962;2022-12-08T04:37:24;100033.16;;;-7.16;74.70
70833;BME280;58452;59.418;17.962;2022-12-08T04:39:50;100037.88;;;-7.07;73.86
70833;BME280;58452;59.418;17.962;2022-12-08T04:42:15;100027.19;;;-7.12;73.29
70833;BME280;58452;59.418;17.962;2022-12-08T04:44:40;100036.34;;;-7.11;72.90
70833;BME280;58452;59.418;17.962;2022-12-08T04:47:06;100036.06;;;-7.02;72.52
70833;BME280;58452;59.418;17.962;2022-12-08T04:49:31;100036.63;;;-6.94;72.57
70833;BME280;58452;59.418;17.962;2022-12-08T04:51:57;100033.91;;;-6.87;72.32
70833;BME280;58452;59.418;17.962;2022-12-08T04:54:22;100032.09;;;-6.82;72.09
70833;BME280;58452;59.418;17.962;2022-12-08T04:56:47;100035.25;;;-6.77;71.83
70833;BME280;58452;59.418;17.962;2022-12-08T04:59:13;100028.69;;;-6.81;71.60
70833;BME280;58452;59.418;17.962;2022-12-08T05:01:38;100036.06;;;-6.77;71.31
70833;BME280;58452;59.418;17.962;2022-12-08T05:04:04;100028.78;;;-6.84;70.93
70833;BME280;58452;59.418;17.962;2022-12-08T05:06:29;100033.34;;;-6.71;71.01
70833;BME280;58452;59.418;17.962;2022-12-08T05:08:54;100029.13;;;-6.69;70.91
70833;BME280;58452;59.418;17.962;2022-12-08T05:11:20;100029.75;;;-6.64;70.74
70833;BME280;58452;59.418;17.962;2022-12-08T05:13:45;100029.69;;;-6.61;70.58
70833;BME280;58452;59.418;17.962;2022-12-08T05:16:12;100033.88;;;-6.61;70.75
70833;BME280;58452;59.418;17.962;2022-12-08T05:18:39;100029.00;;;-6.66;70.34
70833;BME280;58452;59.418;17.962;2022-12-08T05:21:05;100026.53;;;-6.67;70.06
70833;BME280;58452;59.418;17.962;2022-12-08T05:23:31;100027.44;;;-6.68;69.48
70833;BME280;58452;59.418;17.962;2022-12-08T05:25:56;100024.97;;;-6.95;70.57
70833;BME280;58452;59.418;17.962;2022-12-08T05:28:22;100033.66;;;-7.31;72.04
70833;BME280;58452;59.418;17.962;2022-12-08T05:30:47;100041.13;;;-7.57;73.66
70833;BME280;58452;59.418;17.962;2022-12-08T05:33:13;100041.66;;;-7.75;75.00
70833;BME280;58452;59.418;17.962;2022-12-08T05:35:38;100049.00;;;-7.99;76.17
70833;BME280;58452;59.418;17.962;2022-12-08T05:38:04;100055.09;;;-8.07;76.80
70833;BME280;58452;59.418;17.962;2022-12-08T05:40:30;100050.78;;;-8.02;76.62
70833;BME280;58452;59.418;17.962;2022-12-08T05:42:55;100053.56;;;-8.13;76.92
70833;BME280;58452;59.418;17.962;2022-12-08T05:45:20;100050.44;;;-8.21;77.67
70833;BME280;58452;59.418;17.962;2022-12-08T05:47:46;100058.75;;;-8.19;78.05
70833;BME280;58452;59.418;17.962;2022-12-08T05:50:11;100053.69;;;-8.17;77.99
70833;BME280;58452;59.418;17.962;2022-12-08T05:52:36;100064.09;;;-8.02;78.47
70833;BME280;58452;59.418;17.962;2022-12-08T05:55:02;100063.50;;;-8.10;78.23
70833;BME280;58452;59.418;17.962;2022-12-08T05:57:27;100065.84;;;-8.04;78.13
70833;BME280;58452;59.418;17.962;2022-12-08T05:59:53;100070.41;;;-7.88;78.02
70833;BME280;58452;59.418;17.962;2022-12-08T06:02:18;100074.41;;;-7.81;77.78
70833;BME280;58452;59.418;17.962;2022-12-08T06:04:43;100082.47;;;-7.72;77.44
70833;BME280;58452;59.418;17.962;2022-12-08T06:07:09;100069.44;;;-7.55;77.00
70833;BME280;58452;59.418;17.962;2022-12-08T06:09:34;100066.09;;;-7.54;76.06
70833;BME280;58452;59.418;17.962;2022-12-08T06:12:00;100076.59;;;-7.43;75.80
70833;BME280;58452;59.418;17.962;2022-12-08T06:14:26;100072.34;;;-7.41;75.59
70833;BME280;58452;59.418;17.962;2022-12-08T06:16:52;100079.72;;;-7.35;74.64
70833;BME280;58452;59.418;17.962;2022-12-08T06:19:17;100070.09;;;-7.21;75.01
70833;BME280;58452;59.418;17.962;2022-12-08T06:21:43;100068.81;;;-7.08;74.60
70833;BME280;58452;59.418;17.962;2022-12-08T06:24:08;100076.19;;;-7.02;73.79
70833;BME280;58452;59.418;17.962;2022-12-08T06:26:33;100061.84;;;-6.98;73.49
70833;BME280;58452;59.418;17.962;2022-12-08T06:29:00;100072.41;;;-6.88;73.16
70833;BME280;58452;59.418;17.962;2022-12-08T06:31:26;100062.97;;;-6.82;72.93
70833;BME280;58452;59.418;17.962;2022-12-08T06:33:52;100074.56;;;-6.78;72.72
70833;BME280;58452;59.418;17.962;2022-12-08T06:36:19;100079.84;;;-7.12;72.95
70833;BME280;58452;59.418;17.962;2022-12-08T06:38:46;100084.53;;;-7.29;73.48
70833;BME280;58452;59.418;17.962;2022-12-08T06:41:12;100081.75;;;-7.48;74.06
70833;BME280;58452;59.418;17.962;2022-12-08T06:43:37;100079.88;;;-7.41;74.18
70833;BME280;58452;59.418;17.962;2022-12-08T06:46:04;100088.28;;;-7.42;74.14
70833;BME280;58452;59.418;17.962;2022-12-08T06:48:30;100092.09;;;-7.58;74.73
70833;BME280;58452;59.418;17.962;2022-12-08T06:50:55;100083.72;;;-7.57;74.63
70833;BME280;58452;59.418;17.962;2022-12-08T06:53:21;100089.41;;;-7.52;74.22
70833;BME280;58452;59.418;17.962;2022-12-08T06:55:50;100089.53;;;-7.29;74.35
70833;BME280;58452;59.418;17.962;2022-12-08T06:58:17;100095.78;;;-7.42;73.81
70833;BME280;58452;59.418;17.962;2022-12-08T07:00:43;100094.59;;;-7.87;75.22
70833;BME280;58452;59.418;17.962;2022-12-08T07:03:09;100102.19;;;-7.91;75.39
70833;BME280;58452;59.418;17.962;2022-12-08T07:05:36;100097.72;;;-7.79;75.82
70833;BME280;58452;59.418;17.962;2022-12-08T07:08:02;100100.41;;;-7.85;75.65
70833;BME280;58452;59.418;17.962;2022-12-08T07:10:28;100098.41;;;-7.74;75.13
70833;BME280;58452;59.418;17.962;2022-12-08T07:12:53;100094.28;;;-7.77;75.54
70833;BME280;58452;59.418;17.962;2022-12-08T07:15:19;100100.69;;;-7.67;75.17
70833;BME280;58452;59.418;17.962;2022-12-08T07:17:46;100108.84;;;-7.60;75.36
70833;BME280;58452;59.418;17.962;2022-12-08T07:20:12;100096.84;;;-7.49;75.11
70833;BME280;58452;59.418;17.962;2022-12-08T07:22:40;100094.63;;;-7.30;74.12
70833;BME280;58452;59.418;17.962;2022-12-08T07:25:06;100090.78;;;-7.42;73.77
70833;BME280;58452;59.418;17.962;2022-12-08T07:27:31;100097.91;;;-7.30;73.63
70833;BME280;58452;59.418;17.962;2022-12-08T07:29:56;100082.47;;;-7.16;73.11
70833;BME280;58452;59.418;17.962;2022-12-08T07:32:22;100091.31;;;-7.05;73.05
70833;BME280;58452;59.418;17.962;2022-12-08T07:34:47;100096.91;;;-6.97;72.49
70833;BME280;58452;59.418;17.962;2022-12-08T07:37:13;100088.50;;;-6.96;72.29
70833;BME280;58452;59.418;17.962;2022-12-08T07:39:38;100095.84;;;-6.89;72.32
70833;BME280;58452;59.418;17.962;2022-12-08T07:42:03;100093.97;;;-6.83;71.87
70833;BME280;58452;59.418;17.962;2022-12-08T07:44:29;100093.91;;;-6.81;71.43
70833;BME280;58452;59.418;17.962;2022-12-08T07:46:54;100099.16;;;-6.89;71.71
70833;BME280;58452;59.418;17.962;2022-12-08T07:49:19;100093.25;;;-6.86;72.12
70833;BME280;58452;59.418;17.962;2022-12-08T07:51:45;100092.84;;;-7.01;71.75
70833;BME280;58452;59.418;17.962;2022-12-08T07:54:11;100102.94;;;-7.30;73.03
70833;BME280;58452;59.418;17.962;2022-12-08T07:56:37;100098.25;;;-7.13;72.86
70833;BME280;58452;59.418;17.962;2022-12-08T07:59:02;100096.69;;;-7.17;73.08
70833;BME280;58452;59.418;17.962;2022-12-08T08:01:32;100115.28;;;-7.52;74.01
70833;BME280;58452;59.418;17.962;2022-12-08T08:04:00;100113.94;;;-7.93;75.75
70833;BME280;58452;59.418;17.962;2022-12-08T08:06:26;100103.47;;;-7.77;76.00
70833;BME280;58452;59.418;17.962;2022-12-08T08:08:52;100105.44;;;-7.58;75.35
70833;BME280;58452;59.418;17.962;2022-12-08T08:11:18;100107.81;;;-7.53;75.62
70833;BME280;58452;59.418;17.962;2022-12-08T08:13:43;100103.00;;;-7.31;74.96
70833;BME280;58452;59.418;17.962;2022-12-08T08:16:09;100102.88;;;-7.27;75.14
70833;BME280;58452;59.418;17.962;2022-12-08T08:18:36;100097.66;;;-7.21;74.81
70833;BME280;58452;59.418;17.962;2022-12-08T08:21:02;100104.97;;;-7.15;74.67
70833;BME280;58452;59.418;17.962;2022-12-08T08:23:28;100099.47;;;-7.26;75.20
70833;BME280;58452;59.418;17.962;2022-12-08T08:25:53;100095.25;;;-7.24;74.59
70833;BME280;58452;59.418;17.962;2022-12-08T08:28:19;100101.34;;;-7.05;74.58
70833;BME280;58452;59.418;17.962;2022-12-08T08:30:45;100092.66;;;-6.95;74.25
70833;BME280;58452;59.418;17.962;2022-12-08T08:33:12;100109.56;;;-6.75;73.71
70833;BME280;58452;59.418;17.962;2022-12-08T08:35:37;100097.00;;;-6.73;73.31
70833;BME280;58452;59.418;17.962;2022-12-08T08:38:03;100109.00;;;-6.57;73.03
70833;BME280;58452;59.418;17.962;2022-12-08T08:40:29;100106.94;;;-6.70;72.98
70833;BME280;58452;59.418;17.962;2022-12-08T08:42:54;100113.19;;;-7.10;73.61
70833;BME280;58452;59.418;17.962;2022-12-08T08:45:20;100103.63;;;-7.25;74.38
70833;BME280;58452;59.418;17.962;2022-12-08T08:47:46;100107.88;;;-7.27;75.40
70833;BME280;58452;59.418;17.962;2022-12-08T08:50:11;100107.22;;;-7.06;74.58
70833;BME280;58452;59.418;17.962;2022-12-08T08:52:36;100095.78;;;-6.88;73.96
70833;BME280;58452;59.418;17.962;2022-12-08T08:55:02;100114.31;;;-6.66;73.08
70833;BME280;58452;59.418;17.962;2022-12-08T08:57:28;100096.47;;;-6.83;73.53
70833;BME280;58452;59.418;17.962;2022-12-08T08:59:53;100099.25;;;-6.66;73.55
70833;BME280;58452;59.418;17.962;2022-12-08T09:02:19;100101.41;;;-6.55;73.15
70833;BME280;58452;59.418;17.962;2022-12-08T09:04:45;100096.72;;;-6.64;73.11
70833;BME280;58452;59.418;17.962;2022-12-08T09:07:11;100102.97;;;-6.51;72.91
70833;BME280;58452;59.418;17.962;2022-12-08T09:09:38;100102.09;;;-6.50;72.82
70833;BME280;58452;59.418;17.962;2022-12-08T09:12:03;100107.75;;;-6.70;73.26
70833;BME280;58452;59.418;17.962;2022-12-08T09:14:29;100106.53;;;-6.58;73.17
70833;BME280;58452;59.418;17.962;2022-12-08T09:16:54;100108.59;;;-6.45;72.71
70833;BME280;58452;59.418;17.962;2022-12-08T09:19:20;100107.63;;;-6.92;74.09
70833;BME280;58452;59.418;17.962;2022-12-08T09:21:45;100111.38;;;-7.05;75.46
70833;BME280;58452;59.418;17.962;2022-12-08T09:24:10;100106.25;;;-7.02;75.43
70833;BME280;58452;59.418;17.962;2022-12-08T09:26:40;100105.28;;;-7.24;76.69
70833;BME280;58452;59.418;17.962;2022-12-08T09:29:06;100111.84;;;-7.20;76.66
70833;BME280;58452;59.418;17.962;2022-12-08T09:31:32;100119.13;;;-7.40;77.71
70833;BME280;58452;59.418;17.962;2022-12-08T09:33:57;100114.28;;;-7.46;78.50
70833;BME280;58452;59.418;17.962;2022-12-08T09:36:23;100109.59;;;-7.29;78.34
70833;BME280;58452;59.418;17.962;2022-12-08T09:38:52;100111.16;;;-7.25;78.12
70833;BME280;58452;59.418;17.962;2022-12-08T09:41:32;100107.66;;;-7.19;77.88
70833;BME280;58452;59.418;17.962;2022-12-08T09:46:51;100104.47;;;-6.98;77.48
70833;BME280;58452;59.418;17.962;2022-12-08T09:49:21;100104.63;;;-7.03;77.70
70833;BME280;58452;59.418;17.962;2022-12-08T09:51:47;100099.00;;;-7.11;77.83
70833;BME280;58452;59.418;17.962;2022-12-08T09:54:28;100096.50;;;-7.11;77.99
70833;BME280;58452;59.418;17.962;2022-12-08T09:57:00;100098.06;;;-7.07;78.21
70833;BME280;58452;59.418;17.962;2022-12-08T09:59:30;100107.31;;;-7.09;78.76
70833;BME280;58452;59.418;17.962;2022-12-08T10:01:56;100094.81;;;-7.10;79.01
70833;BME280;58452;59.418;17.962;2022-12-08T10:04:38;100096.59;;;-7.14;79.24
70833;BME280;58452;59.418;17.962;2022-12-08T10:07:20;100102.81;;;-6.98;79.37
70833;BME280;58452;59.418;17.962;2022-12-08T10:10:02;100107.03;;;-7.00;79.16
70833;BME280;58452;59.418;17.962;2022-12-08T10:12:36;100106.16;;;-6.99;79.28
70833;BME280;58452;59.418;17.962;2022-12-08T10:17:45;100099.50;;;-7.00;80.16
70833;BME280;58452;59.418;17.962;2022-12-08T10:20:22;100103.84;;;-7.05;80.98
70833;BME280;58452;59.418;17.962;2022-12-08T10:23:08;100104.41;;;-6.97;81.18
70833;BME280;58452;59.418;17.962;2022-12-08T10:26:00;100089.09;;;-6.87;81.54
70833;BME280;58452;59.418;17.962;2022-12-08T10:28:26;100102.00;;;-6.73;81.53
70833;BME280;58452;59.418;17.962;2022-12-08T10:30:52;100100.38;;;-6.74;81.94
70833;BME280;58452;59.418;17.962;2022-12-08T10:33:19;100100.22;;;-6.70;82.42
70833;BME280;58452;59.418;17.962;2022-12-08T10:35:52;100104.78;;;-6.56;81.87
70833;BME280;58452;59.418;17.962;2022-12-08T10:38:26;100095.28;;;-6.47;81.52
70833;BME280;58452;59.418;17.962;2022-12-08T10:41:18;100097.22;;;-6.55;82.33
70833;BME280;58452;59.418;17.962;2022-12-08T10:43:49;100104.50;;;-6.47;82.30
70833;BME280;58452;59.418;17.962;2022-12-08T10:46:20;100111.25;;;-6.49;82.36
70833;BME280;58452;59.418;17.962;2022-12-08T10:51:26;100107.69;;;-6.42;82.48
70833;BME280;58452;59.418;17.962;2022-12-08T10:53:52;100099.16;;;-6.38;82.71
70833;BME280;58452;59.418;17.962;2022-12-08T10:56:17;100108.75;;;-6.24;82.25
70833;BME280;58452;59.418;17.962;2022-12-08T10:58:44;100105.22;;;-6.19;82.46
70833;BME280;58452;59.418;17.962;2022-12-08T11:01:23;100101.72;;;-6.15;82.76
70833;BME280;58452;59.418;17.962;2022-12-08T11:03:51;100113.88;;;-6.03;81.88
70833;BME280;58452;59.418;17.962;2022-12-08T11:06:38;100112.00;;;-5.98;81.86
70833;BME280;58452;59.418;17.962;2022-12-08T11:11:57;100120.06;;;-5.88;81.59
70833;BME280;58452;59.418;17.962;2022-12-08T11:14:44;100122.56;;;-5.88;81.32
70833;BME280;58452;59.418;17.962;2022-12-08T11:19:45;100121.56;;;-5.84;81.57
70833;BME280;58452;59.418;17.962;2022-12-08T11:24:48;100126.50;;;-5.82;81.52
70833;BME280;58452;59.418;17.962;2022-12-08T11:27:20;100123.44;;;-5.89;82.33
70833;BME280;58452;59.418;17.962;2022-12-08T11:29:45;100117.56;;;-5.89;82.65
70833;BME280;58452;59.418;17.962;2022-12-08T11:32:12;100123.53;;;-5.92;82.53
70833;BME280;58452;59.418;17.962;2022-12-08T11:34:41;100127.75;;;-5.93;83.09
70833;BME280;58452;59.418;17.962;2022-12-08T11:37:22;100130.22;;;-5.91;83.33
70833;BME280;58452;59.418;17.962;2022-12-08T11:39:52;100109.81;;;-6.07;83.57
70833;BME280;58452;59.418;17.962;2022-12-08T11:42:21;100116.25;;;-6.00;83.82
70833;BME280;58452;59.418;17.962;2022-12-08T11:44:56;100113.78;;;-6.01;83.91
70833;BME280;58452;59.418;17.962;2022-12-08T11:49:55;100119.88;;;-6.07;85.22
70833;BME280;58452;59.418;17.962;2022-12-08T11:52:33;100120.44;;;-5.99;84.96
70833;BME280;58452;59.418;17.962;2022-12-08T11:57:53;100133.81;;;-5.98;84.62
70833;BME280;58452;59.418;17.962;2022-12-08T12:00:24;100119.06;;;-6.09;85.54
70833;BME280;58452;59.418;17.962;2022-12-08T12:02:55;100124.78;;;-6.04;86.01
70833;BME280;58452;59.418;17.962;2022-12-08T12:05:31;100128.13;;;-6.03;85.58
70833;BME280;58452;59.418;17.962;2022-12-08T12:13:33;100129.13;;;-5.85;85.28
70833;BME280;58452;59.418;17.962;2022-12-08T12:16:26;100133.63;;;-5.70;85.11
70833;BME280;58452;59.418;17.962;2022-12-08T12:18:54;100136.03;;;-5.90;84.87
70833;BME280;58452;59.418;17.962;2022-12-08T12:21:35;100138.88;;;-6.00;85.40
70833;BME280;58452;59.418;17.962;2022-12-08T12:26:33;100134.94;;;-5.83;84.42
70833;BME280;58452;59.418;17.962;2022-12-08T12:29:28;100133.28;;;-5.84;84.10
70833;BME280;58452;59.418;17.962;2022-12-08T12:32:03;100132.03;;;-5.73;84.17
70833;BME280;58452;59.418;17.962;2022-12-08T12:34:34;100134.03;;;-5.82;84.39
70833;BME280;58452;59.418;17.962;2022-12-08T12:39:49;100136.78;;;-5.87;85.03
70833;BME280;58452;59.418;17.962;2022-12-08T12:42:40;100142.09;;;-5.73;84.41
70833;BME280;58452;59.418;17.962;2022-12-08T12:47:48;100155.03;;;-5.60;83.60
70833;BME280;58452;59.418;17.962;2022-12-08T12:53:45;100153.19;;;-5.55;83.44
70833;BME280;58452;59.418;17.962;2022-12-08T13:03:33;100150.59;;;-5.54;81.83
70833;BME280;58452;59.418;17.962;2022-12-08T13:05:58;100151.75;;;-5.62;81.79
70833;BME280;58452;59.418;17.962;2022-12-08T13:08:25;100156.69;;;-5.59;82.07
70833;BME280;58452;59.418;17.962;2022-12-08T13:13:26;100153.59;;;-5.67;81.77
70833;BME280;58452;59.418;17.962;2022-12-08T13:16:17;100159.34;;;-5.64;81.75
70833;BME280;58452;59.418;17.962;2022-12-08T13:18:49;100157.03;;;-5.47;81.35
70833;BME280;58452;59.418;17.962;2022-12-08T13:21:18;100155.38;;;-5.69;81.54
70833;BME280;58452;59.418;17.962;2022-12-08T13:26:48;100157.88;;;-5.46;81.78
70833;BME280;58452;59.418;17.962;2022-12-08T13:29:24;100154.16;;;-5.59;81.54
70833;BME280;58452;59.418;17.962;2022-12-08T13:31:52;100163.53;;;-5.64;81.67
70833;BME280;58452;59.418;17.962;2022-12-08T13:36:55;100151.53;;;-5.56;81.10
70833;BME280;58452;59.418;17.962;2022-12-08T13:39:29;100150.97;;;-5.41;81.49
70833;BME280;58452;59.418;17.962;2022-12-08T13:42:00;100159.34;;;-5.17;80.38
70833;BME280;58452;59.418;17.962;2022-12-08T13:47:27;100158.28;;;-5.35;80.67
70833;BME280;58452;59.418;17.962;2022-12-08T13:50:14;100163.16;;;-5.30;81.08
70833;BME280;58452;59.418;17.962;2022-12-08T13:55:41;100171.88;;;-5.62;81.55
70833;BME280;58452;59.418;17.962;2022-12-08T13:58:16;100171.09;;;-5.64;82.72
70833;BME280;58452;59.418;17.962;2022-12-08T14:00:42;100166.13;;;-5.89;82.89
70833;BME280;58452;59.418;17.962;2022-12-08T14:03:10;100165.38;;;-5.91;83.70
70833;BME280;58452;59.418;17.962;2022-12-08T14:05:40;100172.94;;;-5.93;83.62
70833;BME280;58452;59.418;17.962;2022-12-08T14:08:17;100175.50;;;-5.94;84.16
70833;BME280;58452;59.418;17.962;2022-12-08T14:10:44;100170.56;;;-5.96;83.60
70833;BME280;58452;59.418;17.962;2022-12-08T14:13:14;100176.22;;;-5.90;84.04
70833;BME280;58452;59.418;17.962;2022-12-08T14:15:40;100180.03;;;-6.04;84.21
70833;BME280;58452;59.418;17.962;2022-12-08T14:18:22;100179.03;;;-5.98;84.33
70833;BME280;58452;59.418;17.962;2022-12-08T14:21:10;100182.78;;;-5.86;84.15
70833;BME280;58452;59.418;17.962;2022-12-08T14:23:36;100174.50;;;-5.88;84.12
70833;BME280;58452;59.418;17.962;2022-12-08T14:26:03;100173.34;;;-5.80;83.67